createdAt,value
2022-10-18T00:00:22.689Z,78.03
2022-10-18T00:03:10.675Z,78.31
2022-10-18T00:05:38.381Z,78.12
2022-10-18T00:08:05.917Z,78.07
2022-10-18T00:10:33.493Z,78.24
2022-10-18T00:13:01.276Z,78.24
2022-10-18T00:15:28.702Z,78.08
2022-10-18T00:17:56.264Z,78.15
2022-10-18T00:20:23.693Z,78.26
2022-10-18T00:22:51.369Z,78.35
2022-10-18T00:25:19.551Z,78.35
2022-10-18T00:28:01.376Z,78.38
2022-10-18T00:30:28.569Z,78.46
2022-10-18T00:32:55.954Z,78.58
2022-10-18T00:35:23.647Z,78.62
2022-10-18T00:38:05.302Z,78.69
2022-10-18T00:40:32.694Z,78.66
2022-10-18T00:42:59.863Z,78.75
2022-10-18T00:45:27.667Z,78.46
2022-10-18T00:47:59.669Z,78.71
2022-10-18T00:50:32.135Z,78.71
2022-10-18T00:53:04.368Z,78.85
2022-10-18T00:55:33.742Z,78.80
2022-10-18T00:58:02.029Z,78.88
2022-10-18T01:00:29.449Z,78.86
2022-10-18T01:02:58.835Z,78.65
2022-10-18T01:05:26.694Z,78.72
2022-10-18T01:08:15.886Z,78.79
2022-10-18T01:11:22.445Z,78.79
2022-10-18T01:14:24.111Z,78.72
2022-10-18T01:17:11.075Z,78.81
2022-10-18T01:20:16.235Z,78.88
2022-10-18T01:23:08.044Z,78.99
2022-10-18T01:25:55.985Z,78.92
2022-10-18T01:28:40.643Z,78.89
2022-10-18T01:31:35.012Z,78.87
2022-10-18T01:34:07.903Z,78.83
2022-10-18T01:36:47.575Z,79.16
2022-10-18T01:39:34.579Z,79.19
2022-10-18T01:42:07.277Z,79.26
2022-10-18T01:44:36.466Z,79.05
2022-10-18T01:47:06.472Z,79.33
2022-10-18T01:49:34.056Z,79.21
2022-10-18T01:52:01.513Z,79.39
2022-10-18T01:54:42.908Z,79.33
2022-10-18T01:57:25.707Z,79.15
2022-10-18T01:59:59.520Z,79.35
2022-10-18T02:02:53.630Z,79.38
2022-10-18T02:05:48.784Z,79.67
2022-10-18T02:08:33.512Z,79.54
2022-10-18T02:11:08.333Z,79.58
2022-10-18T02:13:41.537Z,79.74
2022-10-18T02:16:34.391Z,79.70
2022-10-18T02:19:40.642Z,79.73
2022-10-18T02:22:11.222Z,79.76
2022-10-18T02:24:43.317Z,79.79
2022-10-18T02:27:25.600Z,79.82
2022-10-18T02:29:53.851Z,79.79
2022-10-18T02:32:29.326Z,79.99
2022-10-18T02:35:04.439Z,80.07
2022-10-18T02:37:39.072Z,79.96
2022-10-18T02:40:09.472Z,80.22
2022-10-18T02:42:50.085Z,80.17
2022-10-18T02:45:17.824Z,80.27
2022-10-18T02:47:45.331Z,80.22
2022-10-18T02:50:14.156Z,80.31
2022-10-18T02:52:41.368Z,80.31
2022-10-18T02:55:23.247Z,80.24
2022-10-18T02:57:50.779Z,80.44
2022-10-18T03:00:18.607Z,80.33
2022-10-18T03:02:48.639Z,80.39
2022-10-18T03:05:16.224Z,80.44
2022-10-18T03:07:43.579Z,80.51
2022-10-18T03:10:11.093Z,80.55
2022-10-18T03:12:38.471Z,80.64
2022-10-18T03:15:06.317Z,80.76
2022-10-18T03:17:48.054Z,80.64
2022-10-18T03:20:15.610Z,80.79
2022-10-18T03:22:43.050Z,80.69
2022-10-18T03:25:10.385Z,80.66
2022-10-18T03:27:37.852Z,80.74
2022-10-18T03:30:06.012Z,80.92
2022-10-18T03:32:33.849Z,80.89
2022-10-18T03:35:01.468Z,80.90
2022-10-18T03:37:28.996Z,81.02
2022-10-18T03:39:56.504Z,81.00
2022-10-18T03:42:23.788Z,80.98
2022-10-18T03:44:51.334Z,81.19
2022-10-18T03:47:18.949Z,81.16
2022-10-18T03:49:46.360Z,81.21
2022-10-18T03:52:13.792Z,81.24
2022-10-18T03:54:41.029Z,81.13
2022-10-18T03:57:08.447Z,81.23
2022-10-18T03:59:36.365Z,81.21
2022-10-18T04:02:04.783Z,81.35
2022-10-18T04:04:32.091Z,81.31
2022-10-18T04:06:59.610Z,81.36
2022-10-18T04:09:26.810Z,81.40
2022-10-18T04:11:54.170Z,81.37
2022-10-18T04:14:21.649Z,81.34
2022-10-18T04:16:49.346Z,81.43
2022-10-18T04:19:16.852Z,81.39
2022-10-18T04:21:44.447Z,81.43
2022-10-18T04:24:11.821Z,81.35
2022-10-18T04:26:39.321Z,81.38
2022-10-18T04:29:06.648Z,81.53
2022-10-18T04:31:34.160Z,81.53
2022-10-18T04:34:02.402Z,81.78
2022-10-18T04:36:30.995Z,81.83
2022-10-18T04:38:58.446Z,81.70
2022-10-18T04:41:25.786Z,81.86
2022-10-18T04:43:53.350Z,81.91
2022-10-18T04:46:21.004Z,81.86
2022-10-18T04:48:48.576Z,81.86
2022-10-18T04:51:16.144Z,82.05
2022-10-18T04:53:43.769Z,81.96
2022-10-18T04:56:11.462Z,81.97
2022-10-18T04:58:38.720Z,81.89
2022-10-18T05:01:07.389Z,81.93
2022-10-18T05:03:35.290Z,82.02
2022-10-18T05:06:03.727Z,82.13
2022-10-18T05:08:33.219Z,82.05
2022-10-18T05:11:01.079Z,82.06
2022-10-18T05:13:29.790Z,82.10
2022-10-18T05:15:58.994Z,82.12
2022-10-18T05:18:26.925Z,82.17
2022-10-18T05:20:54.356Z,82.18
2022-10-18T05:23:21.837Z,82.23
2022-10-18T05:25:49.210Z,82.26
2022-10-18T05:28:38.174Z,82.39
2022-10-18T05:31:06.032Z,82.39
2022-10-18T05:33:47.640Z,82.35
2022-10-18T05:36:15.491Z,82.44
2022-10-18T05:38:44.832Z,82.56
2022-10-18T05:41:12.462Z,82.54
2022-10-18T05:43:40.602Z,82.65
2022-10-18T05:46:15.513Z,82.66
2022-10-18T05:48:44.513Z,82.66
2022-10-18T05:51:12.010Z,82.63
2022-10-18T05:53:39.325Z,82.68
2022-10-18T05:56:07.258Z,82.65
2022-10-18T05:58:34.774Z,82.69
2022-10-18T06:01:03.457Z,82.74
2022-10-18T06:03:31.517Z,82.73
2022-10-18T06:06:09.780Z,82.91
2022-10-18T06:08:38.368Z,83.01
2022-10-18T06:11:17.121Z,82.80
2022-10-18T06:13:47.093Z,83.02
2022-10-18T06:16:16.076Z,83.01
2022-10-18T06:18:46.952Z,82.92
2022-10-18T06:21:14.406Z,83.02
2022-10-18T06:23:41.691Z,82.93
2022-10-18T06:26:11.270Z,82.72
2022-10-18T06:28:38.759Z,82.99
2022-10-18T06:31:06.592Z,82.93
2022-10-18T06:33:36.618Z,83.03
2022-10-18T06:36:07.932Z,83.15
2022-10-18T06:38:35.832Z,83.12
2022-10-18T06:41:19.135Z,83.28
2022-10-18T06:44:06.708Z,83.28
2022-10-18T06:46:34.111Z,83.20
2022-10-18T06:49:01.495Z,83.24
2022-10-18T06:51:29.036Z,83.15
2022-10-18T06:54:17.003Z,83.22
2022-10-18T06:56:44.085Z,83.27
2022-10-18T06:59:11.891Z,83.20
2022-10-18T07:01:39.384Z,83.08
2022-10-18T07:04:06.813Z,83.01
2022-10-18T07:06:34.172Z,83.12
2022-10-18T07:09:02.786Z,82.95
2022-10-18T07:11:30.571Z,83.23
2022-10-18T07:14:03.827Z,83.17
2022-10-18T07:16:33.857Z,83.21
2022-10-18T07:19:02.132Z,83.13
2022-10-18T07:21:29.469Z,83.15
2022-10-18T07:23:57.179Z,83.08
2022-10-18T07:26:33.417Z,83.14
2022-10-18T07:29:15.110Z,83.21
2022-10-18T07:31:42.485Z,83.19
2022-10-18T07:34:24.295Z,83.21
2022-10-18T07:36:51.418Z,83.21
2022-10-18T07:39:18.587Z,83.02
2022-10-18T07:41:46.099Z,83.31
2022-10-18T07:44:13.717Z,83.03
2022-10-18T07:46:41.208Z,83.12
2022-10-18T07:49:08.662Z,83.22
2022-10-18T07:51:36.007Z,83.07
2022-10-18T07:54:03.531Z,83.18
2022-10-18T07:56:31.162Z,82.97
2022-10-18T07:58:58.816Z,83.10
2022-10-18T08:01:26.364Z,82.88
2022-10-18T08:03:54.217Z,82.72
2022-10-18T08:06:22.438Z,83.02
2022-10-18T08:08:50.154Z,83.11
2022-10-18T08:11:20.571Z,83.26
2022-10-18T08:13:48.613Z,83.35
2022-10-18T08:16:20.071Z,83.42
2022-10-18T08:18:48.048Z,83.46
2022-10-18T08:21:17.565Z,83.39
2022-10-18T08:23:45.527Z,83.41
2022-10-18T08:26:16.481Z,83.31
2022-10-18T08:28:53.577Z,83.00
2022-10-18T08:31:26.317Z,83.05
2022-10-18T08:33:56.860Z,82.84
2022-10-18T08:36:24.503Z,82.60
2022-10-18T08:38:52.092Z,82.84
2022-10-18T08:41:36.977Z,82.92
2022-10-18T08:44:13.229Z,83.31
2022-10-18T08:46:45.804Z,83.16
2022-10-18T08:50:00.385Z,83.01
2022-10-18T08:52:33.192Z,83.33
2022-10-18T08:55:02.529Z,83.16
2022-10-18T08:57:32.612Z,83.24
2022-10-18T09:00:05.861Z,83.22
2022-10-18T09:02:49.319Z,83.29
2022-10-18T09:05:31.368Z,83.20
2022-10-18T09:08:36.976Z,83.40
2022-10-18T09:11:32.228Z,83.40
2022-10-18T09:14:23.711Z,83.34
2022-10-18T09:17:16.989Z,83.15
2022-10-18T09:20:22.158Z,83.36
2022-10-18T09:23:19.641Z,83.38
2022-10-18T09:25:53.355Z,83.42
2022-10-18T09:28:39.293Z,83.24
2022-10-18T09:31:32.338Z,83.21
2022-10-18T09:34:22.679Z,83.28
2022-10-18T09:36:52.350Z,83.28
2022-10-18T09:39:30.276Z,83.12
2022-10-18T09:42:07.012Z,83.00
2022-10-18T09:45:00.109Z,83.06
2022-10-18T09:47:37.898Z,83.09
2022-10-18T09:50:54.696Z,82.87
2022-10-18T09:53:37.018Z,83.01
2022-10-18T09:56:29.952Z,82.94
2022-10-18T09:59:51.009Z,83.07
2022-10-18T10:02:21.778Z,83.07
2022-10-18T10:04:50.717Z,82.97
2022-10-18T10:07:27.716Z,82.90
2022-10-18T10:10:17.805Z,82.97
2022-10-18T10:12:45.644Z,82.80
2022-10-18T10:15:29.505Z,82.96
2022-10-18T10:18:14.383Z,83.03
2022-10-18T10:20:46.303Z,82.94
2022-10-18T10:23:21.088Z,82.70
2022-10-18T10:26:19.992Z,82.70
2022-10-18T10:28:48.408Z,82.47
2022-10-18T10:31:31.011Z,82.36
2022-10-18T10:34:21.686Z,82.59
2022-10-18T10:36:52.151Z,82.43
2022-10-18T10:39:21.794Z,82.41
2022-10-18T10:41:56.738Z,82.71
2022-10-18T10:44:28.411Z,82.73
2022-10-18T10:46:56.857Z,82.65
2022-10-18T10:49:46.052Z,82.78
2022-10-18T10:52:27.285Z,82.83
2022-10-18T10:55:34.918Z,82.87
2022-10-18T10:58:03.113Z,83.01
2022-10-18T11:00:44.087Z,83.04
2022-10-18T11:03:29.126Z,82.87
2022-10-18T11:06:00.391Z,83.05
2022-10-18T11:08:41.109Z,83.17
2022-10-18T11:11:23.295Z,83.26
2022-10-18T11:14:07.254Z,83.47
2022-10-18T11:17:06.905Z,83.34
2022-10-18T11:20:10.636Z,83.46
2022-10-18T11:23:06.773Z,83.54
2022-10-18T11:25:58.138Z,83.48
2022-10-18T11:28:35.251Z,83.59
2022-10-18T11:31:14.578Z,83.57
2022-10-18T11:34:09.699Z,83.49
2022-10-18T11:37:23.041Z,83.69
2022-10-18T11:39:54.778Z,83.62
2022-10-18T11:43:00.595Z,83.68
2022-10-18T11:46:02.464Z,83.79
2022-10-18T11:48:35.677Z,83.88
2022-10-18T11:51:06.083Z,83.87
2022-10-18T11:53:52.204Z,83.81
2022-10-18T11:56:38.274Z,83.80
2022-10-18T11:59:33.512Z,83.77
2022-10-18T12:02:41.628Z,83.88
2022-10-18T12:05:26.161Z,83.88
2022-10-18T12:08:05.159Z,83.86
2022-10-18T12:10:52.771Z,83.75
2022-10-18T12:13:51.097Z,84.04
2022-10-18T12:16:39.014Z,83.95
2022-10-18T12:19:28.159Z,83.85
2022-10-18T12:22:13.318Z,83.83
2022-10-18T12:24:41.756Z,83.80
2022-10-18T12:27:13.249Z,83.88
2022-10-18T12:29:50.194Z,83.89
2022-10-18T12:32:24.364Z,83.97
2022-10-18T12:35:06.254Z,83.93
2022-10-18T12:37:36.806Z,84.02
2022-10-18T12:40:13.445Z,83.92
2022-10-18T12:42:47.407Z,84.04
2022-10-18T12:45:46.272Z,84.13
2022-10-18T12:48:28.796Z,84.30
2022-10-18T12:51:20.770Z,84.26
2022-10-18T12:53:52.606Z,84.28
2022-10-18T12:56:44.026Z,84.38
2022-10-18T12:59:14.638Z,84.20
2022-10-18T13:01:51.329Z,84.33
2022-10-18T13:04:32.172Z,84.11
2022-10-18T13:07:22.566Z,84.14
2022-10-18T13:10:12.430Z,84.28
2022-10-18T13:13:38.633Z,84.41
2022-10-18T13:16:27.982Z,84.27
2022-10-18T13:19:08.982Z,84.32
2022-10-18T13:22:08.481Z,84.47
2022-10-18T13:25:10.438Z,84.81
2022-10-18T13:28:08.055Z,84.79
2022-10-18T13:31:56.445Z,84.60
2022-10-18T13:36:07.565Z,84.77
2022-10-18T13:39:06.095Z,85.13
2022-10-18T13:41:45.756Z,85.04
2022-10-18T13:44:37.108Z,84.97
2022-10-18T13:47:04.349Z,85.32
2022-10-18T13:49:58.527Z,85.21
2022-10-18T13:52:49.576Z,85.36
2022-10-18T13:55:41.895Z,85.57
2022-10-18T13:58:22.981Z,85.55
2022-10-18T14:01:21.687Z,85.71
2022-10-18T14:03:59.077Z,85.60
2022-10-18T14:06:43.348Z,85.56
2022-10-18T14:09:43.784Z,85.40
2022-10-18T14:12:45.666Z,85.61
2022-10-18T14:15:23.770Z,85.70
2022-10-18T14:18:18.550Z,85.82
2022-10-18T14:21:12.208Z,85.86
2022-10-18T14:23:44.384Z,85.90
2022-10-18T14:26:18.283Z,85.99
2022-10-18T14:29:01.423Z,85.88
2022-10-18T14:31:29.703Z,85.99
2022-10-18T14:33:58.974Z,86.24
2022-10-18T14:36:35.829Z,85.93
2022-10-18T14:39:06.984Z,86.09
2022-10-18T14:41:41.029Z,86.08
2022-10-18T14:44:14.644Z,86.20
2022-10-18T14:46:50.113Z,86.15
2022-10-18T14:49:19.935Z,86.04
2022-10-18T14:51:51.065Z,86.21
2022-10-18T14:54:25.093Z,86.23
2022-10-18T14:56:55.967Z,86.16
2022-10-18T14:59:30.256Z,86.11
2022-10-18T15:02:23.087Z,86.17
2022-10-18T15:05:21.603Z,86.10
2022-10-18T15:07:50.969Z,86.27
2022-10-18T15:10:28.019Z,86.09
2022-10-18T15:13:10.880Z,86.17
2022-10-18T15:15:40.141Z,86.06
2022-10-18T15:18:18.877Z,86.38
2022-10-18T15:20:46.100Z,86.16
2022-10-18T15:23:30.850Z,86.22
2022-10-18T15:26:14.832Z,86.01
2022-10-18T15:29:01.466Z,86.22
2022-10-18T15:31:34.978Z,86.21
2022-10-18T15:34:25.990Z,86.08
2022-10-18T15:36:56.639Z,86.42
2022-10-18T15:39:30.773Z,86.18
2022-10-18T15:42:01.103Z,86.29
2022-10-18T15:44:46.304Z,86.28
2022-10-18T15:47:15.654Z,86.30
2022-10-18T15:49:45.762Z,86.27
2022-10-18T15:52:39.193Z,86.41
2022-10-18T15:55:29.733Z,86.26
2022-10-18T15:58:12.072Z,86.46
2022-10-18T16:00:39.666Z,86.52
2022-10-18T16:03:08.718Z,86.71
2022-10-18T16:05:37.288Z,86.52
2022-10-18T16:08:04.753Z,86.61
2022-10-18T16:10:31.948Z,86.65
2022-10-18T16:12:59.342Z,86.63
2022-10-18T16:15:26.546Z,86.71
2022-10-18T16:17:53.872Z,86.89
2022-10-18T16:20:24.383Z,86.95
2022-10-18T16:22:52.083Z,86.65
2022-10-18T16:25:19.488Z,86.96
2022-10-18T16:27:46.910Z,86.85
2022-10-18T16:30:18.197Z,86.77
2022-10-18T16:32:46.088Z,86.96
2022-10-18T16:35:28.299Z,86.79
2022-10-18T16:37:56.187Z,86.93
2022-10-18T16:40:41.102Z,86.96
2022-10-18T16:43:08.870Z,86.86
2022-10-18T16:45:36.392Z,86.85
2022-10-18T16:48:04.409Z,86.67
2022-10-18T16:50:35.298Z,86.74
2022-10-18T16:53:02.933Z,86.81
2022-10-18T16:55:30.229Z,86.69
2022-10-18T16:57:57.722Z,86.89
2022-10-18T17:00:24.909Z,86.68
2022-10-18T17:02:51.980Z,86.80
2022-10-18T17:05:19.672Z,86.91
2022-10-18T17:07:47.743Z,86.71
2022-10-18T17:10:18.879Z,87.07
2022-10-18T17:12:46.137Z,86.84
2022-10-18T17:15:13.308Z,86.99
2022-10-18T17:17:40.664Z,86.82
2022-10-18T17:20:08.706Z,86.87
2022-10-18T17:22:36.287Z,86.94
2022-10-18T17:25:04.244Z,87.15
2022-10-18T17:27:32.316Z,87.23
2022-10-18T17:30:14.752Z,87.07
2022-10-18T17:32:44.131Z,87.37
2022-10-18T17:35:12.385Z,87.33
2022-10-18T17:37:44.047Z,87.43
2022-10-18T17:40:13.649Z,87.45
2022-10-18T17:42:40.927Z,87.41
2022-10-18T17:45:09.123Z,87.58
2022-10-18T17:47:50.775Z,87.43
2022-10-18T17:50:18.447Z,87.38
2022-10-18T17:52:46.910Z,87.52
2022-10-18T17:55:15.184Z,87.46
2022-10-18T17:57:43.300Z,87.49
2022-10-18T18:00:13.211Z,87.44
2022-10-18T18:02:42.212Z,87.46
2022-10-18T18:05:10.125Z,87.16
2022-10-18T18:07:37.434Z,87.34
2022-10-18T18:10:05.201Z,87.31
2022-10-18T18:12:47.395Z,87.30
2022-10-18T18:15:14.650Z,87.26
2022-10-18T18:17:58.100Z,87.29
2022-10-18T18:20:26.170Z,87.31
2022-10-18T18:22:53.926Z,87.44
2022-10-18T18:25:21.341Z,87.27
2022-10-18T18:27:48.456Z,87.44
2022-10-18T18:30:17.584Z,87.39
2022-10-18T18:33:05.196Z,87.53
2022-10-18T18:35:32.561Z,87.81
2022-10-18T18:37:59.948Z,87.74
2022-10-18T18:40:27.454Z,87.77
2022-10-18T18:43:12.072Z,87.85
2022-10-18T18:45:50.079Z,88.22
2022-10-18T18:48:19.767Z,88.05
2022-10-18T18:50:51.604Z,88.09
2022-10-18T18:53:19.256Z,88.29
2022-10-18T18:55:48.061Z,88.25
2022-10-18T18:58:15.452Z,88.34
2022-10-18T19:00:44.511Z,88.13
2022-10-18T19:03:12.365Z,88.23
2022-10-18T19:05:39.505Z,88.36
2022-10-18T19:08:06.492Z,88.17
2022-10-18T19:10:33.485Z,88.23
2022-10-18T19:13:00.867Z,88.33
2022-10-18T19:15:30.010Z,88.41
2022-10-18T19:17:59.113Z,88.39
2022-10-18T19:20:26.324Z,88.41
2022-10-18T19:22:53.551Z,88.58
2022-10-18T19:25:22.251Z,88.58
2022-10-18T19:27:52.003Z,88.47
2022-10-18T19:30:19.282Z,88.40
2022-10-18T19:32:46.479Z,88.66
2022-10-18T19:35:28.011Z,88.58
2022-10-18T19:37:55.162Z,88.77
2022-10-18T19:40:22.573Z,88.68
2022-10-18T19:42:49.634Z,88.66
2022-10-18T19:45:16.774Z,88.56
2022-10-18T19:47:43.989Z,88.52
2022-10-18T19:50:11.146Z,88.33
2022-10-18T19:52:38.088Z,88.44
2022-10-18T19:55:05.725Z,88.16
2022-10-18T19:57:32.928Z,88.29
2022-10-18T20:00:00.944Z,88.05
2022-10-18T20:02:38.677Z,88.14
2022-10-18T20:05:06.280Z,88.14
2022-10-18T20:07:33.801Z,87.93
2022-10-18T20:10:01.054Z,87.83
2022-10-18T20:12:28.728Z,87.64
2022-10-18T20:14:56.170Z,87.36
2022-10-18T20:17:23.536Z,87.29
2022-10-18T20:19:50.931Z,87.21
2022-10-18T20:22:18.274Z,87.01
2022-10-18T20:24:46.163Z,86.86
2022-10-18T20:27:13.937Z,86.80
2022-10-18T20:29:41.302Z,86.90
2022-10-18T20:32:09.052Z,86.86
2022-10-18T20:34:36.602Z,86.94
2022-10-18T20:37:03.799Z,86.94
2022-10-18T20:39:31.343Z,86.91
2022-10-18T20:41:59.016Z,87.21
2022-10-18T20:44:26.738Z,87.53
2022-10-18T20:46:54.162Z,87.40
2022-10-18T20:49:22.098Z,87.34
2022-10-18T20:51:49.576Z,87.42
2022-10-18T20:54:16.603Z,87.57
2022-10-18T20:56:43.647Z,87.62
2022-10-18T20:59:11.147Z,87.65
2022-10-18T21:01:39.408Z,87.57
2022-10-18T21:04:09.466Z,87.59
2022-10-18T21:06:42.572Z,87.54
2022-10-18T21:09:16.566Z,87.45
2022-10-18T21:11:46.273Z,87.48
2022-10-18T21:14:18.051Z,87.08
2022-10-18T21:16:46.682Z,87.01
2022-10-18T21:19:17.226Z,86.91
2022-10-18T21:21:47.368Z,86.67
2022-10-18T21:24:14.917Z,86.76
2022-10-18T21:26:43.086Z,86.85
2022-10-18T21:29:12.253Z,86.81
2022-10-18T21:31:42.096Z,86.85
2022-10-18T21:34:15.401Z,86.81
2022-10-18T21:36:44.644Z,86.38
2022-10-18T21:39:15.728Z,86.70
2022-10-18T21:41:44.158Z,86.84
2022-10-18T21:44:12.354Z,86.66
2022-10-18T21:46:42.573Z,86.38
2022-10-18T21:49:10.905Z,86.79
2022-10-18T21:51:38.608Z,86.63
2022-10-18T21:54:11.180Z,86.68
2022-10-18T21:56:52.678Z,86.92
2022-10-18T21:59:20.111Z,86.75
2022-10-18T22:01:47.549Z,86.68
2022-10-18T22:04:27.146Z,86.83
2022-10-18T22:06:54.564Z,86.95
2022-10-18T22:09:22.101Z,86.65
2022-10-18T22:11:52.032Z,86.62
2022-10-18T22:14:19.909Z,86.74
2022-10-18T22:16:47.152Z,86.86
2022-10-18T22:19:14.991Z,86.84
2022-10-18T22:21:42.454Z,86.59
2022-10-18T22:24:09.895Z,86.90
2022-10-18T22:26:51.658Z,86.96
2022-10-18T22:29:33.449Z,87.05
2022-10-18T22:32:01.328Z,87.14
2022-10-18T22:34:28.619Z,86.88
2022-10-18T22:37:10.273Z,87.27
2022-10-18T22:39:37.782Z,87.00
2022-10-18T22:42:05.691Z,86.91
2022-10-18T22:44:35.794Z,86.89
2022-10-18T22:47:03.170Z,87.16
2022-10-18T22:49:30.682Z,86.98
2022-10-18T22:51:57.999Z,87.29
2022-10-18T22:54:25.331Z,87.36
2022-10-18T22:56:52.810Z,87.46
2022-10-18T22:59:20.460Z,87.27
2022-10-18T23:01:47.687Z,87.66
2022-10-18T23:04:15.198Z,87.41
2022-10-18T23:06:42.803Z,87.47
2022-10-18T23:09:11.044Z,87.13
2022-10-18T23:11:38.489Z,87.77
2022-10-18T23:14:06.756Z,87.56
2022-10-18T23:16:34.263Z,87.51
2022-10-18T23:19:16.594Z,87.31
2022-10-18T23:21:58.217Z,87.82
2022-10-18T23:24:25.844Z,87.60
2022-10-18T23:26:53.351Z,87.65
2022-10-18T23:29:20.804Z,87.57
2022-10-18T23:31:48.245Z,87.55
2022-10-18T23:34:15.873Z,87.51
2022-10-18T23:39:11.861Z,87.65
2022-10-18T23:41:39.303Z,87.37
2022-10-18T23:44:08.493Z,87.54
2022-10-18T23:46:36.104Z,87.56
2022-10-18T23:49:03.462Z,87.51
2022-10-18T23:51:30.984Z,87.56
2022-10-18T23:53:58.508Z,87.39
2022-10-18T23:56:25.930Z,87.64
2022-10-18T23:58:53.407Z,87.52
